Data for 12/16/2010

Time Sea-Level Adjusted Pressure Absolute Pressure Temperature Relative Humidity Dew Point   
(mb) (inHg) (mb) (inHg) (C) (F) (%) (C) (F)
00:05 1015 29.97 844 24.92 -5.4 22.2 51 -14.1 6.6
00:10 1015 29.97 844 24.92 -5.8 21.5 51 -14.4 6.1
00:15 1015 29.97 844 24.92 -5.8 21.6 49 -14.9 5.2
00:20 1015 29.97 844 24.92 -5.7 21.7 51 -14.3 6.3
00:25 1015 29.97 844 24.92 -5.7 21.7 53 -13.8 7.2
00:30 1015 29.97 844 24.92 -6.5 20.3 58 -13.5 7.8
00:35 1015 29.97 844 24.92 -6.6 20 55 -14.3 6.3
00:40 1015 29.97 844 24.92 -5.5 22 45 -15.7 3.7
00:45 1015 29.97 844 24.92 -4.5 23.9 50 -13.4 7.9
00:50 1015 29.97 844 24.92 -5.2 22.6 50 -14.2 6.4
00:55 1015 29.97 844 24.92 -5 22.9 52 -13.4 7.8
01:00 1015 29.97 844 24.92 -5.5 22.2 53 -13.7 7.4
01:05 1015 29.97 845 24.95 -5.6 21.9 52 -14 6.9
01:10 1015 29.97 845 24.95 -5.7 21.7 53 -13.7 7.3
01:15 1015 29.97 845 24.95 -6 21.2 54 -13.8 7.2
01:20 1015 29.97 845 24.95 -6.4 20.6 56 -13.8 7.2
01:25 1016 30 845 24.95 -6.6 20.1 57 -13.9 7
01:30 1016 30 845 24.95 -6.7 20 57 -13.9 7
01:35 1016 30 845 24.95 -6.7 19.9 57 -13.8 7.1
01:40 1016 30 845 24.95 -6.8 19.8 56 -14.1 6.7
01:45 1016 30 845 24.95 -6.5 20.4 54 -14.3 6.2
01:50 1016 30 845 24.95 -6.2 20.8 56 -13.6 7.5
01:55 1016 30 845 24.95 -6.7 19.9 57 -13.8 7.2
02:00 1016 30 845 24.95 -6.9 19.5 56 -14.3 6.3
02:05 1016 30 845 24.95 -6.8 19.7 57 -14.1 6.6
02:10 1016 30 845 24.95 -6.8 19.7 54 -14.6 5.6
02:15 1016 30 845 24.95 -6.4 20.4 54 -14.4 6.2
02:20 1016 30 845 24.95 -6.6 20.1 55 -14.1 6.6
02:25 1016 30 845 24.95 -7.1 19.3 56 -14.4 6.1
02:30 1016 30 845 24.95 -7.4 18.7 58 -14.4 6.1
02:35 1016 30 845 24.95 -7.6 18.4 59 -14.3 6.2
02:40 1016 30 845 24.95 -7.6 18.3 59 -14.3 6.2
02:45 1016 30 845 24.95 -7.6 18.4 58 -14.4 6.1
02:50 1016 30 845 24.95 -7.5 18.5 58 -14.5 5.9
02:55 1016 30 845 24.95 -7.4 18.7 57 -14.5 5.9
03:00 1016 30 845 24.95 -7.5 18.5 56 -14.8 5.4
03:05 1016 30 845 24.95 -7.4 18.6 57 -14.7 5.6
03:10 1016 30 845 24.95 -7.8 18 58 -14.6 5.8
03:15 1016 30 845 24.95 -7.8 18 58 -14.7 5.6
03:20 1016 30 845 24.95 -7.9 17.7 59 -14.6 5.8
03:25 1016 30 845 24.95 -8.1 17.4 61 -14.4 6.1
03:30 1016 30 845 24.95 -8.3 17.1 62 -14.4 6
03:35 1016 30 845 24.95 -8.5 16.8 63 -14.4 6.1
03:40 1016 30 845 24.95 -8.8 16.2 64 -14.5 5.9
03:45 1016 30 845 24.95 -8.8 16.2 63 -14.6 5.7
03:50 1016 30 845 24.95 -8.5 16.7 61 -14.6 5.7
03:55 1016 30 845 24.95 -8.3 17.1 60 -14.8 5.4
04:00 1016 30 845 24.95 -7.6 18.4 57 -14.8 5.4
04:05 1016 30 845 24.95 -7.3 18.9 57 -14.5 6
04:10 1016 30 845 24.95 -7.3 18.8 59 -14 6.8
04:15 1016 30 845 24.95 -8 17.7 61 -14.1 6.6
04:20 1016 30 845 24.95 -8.4 16.9 64 -14.1 6.5
04:25 1016 30 845 24.95 -8.7 16.4 65 -14.2 6.5
04:30 1016 30 845 24.95 -8.9 16 66 -14.2 6.4
04:35 1016 30 845 24.95 -8.7 16.4 65 -14.2 6.4
04:40 1016 30 845 24.95 -8.6 16.5 64 -14.1 6.5
04:45 1016 30 845 24.95 -8.5 16.8 63 -14.3 6.2
04:50 1016 30 845 24.95 -8.3 17.1 61 -14.4 6
04:55 1016 30 845 24.95 -7.9 17.7 60 -14.3 6.2
05:00 1016 30 846 24.98 -7.6 18.4 58 -14.5 5.9
05:05 1016 30 846 24.98 -7.1 19.3 56 -14.4 6
05:10 1016 30 846 24.98 -7 19.4 57 -14.2 6.4
05:15 1016 30 846 24.98 -7.2 19.1 60 -13.6 7.5
05:20 1016 30 846 24.98 -7.6 18.4 61 -13.8 7.2
05:25 1016 30 846 24.98 -7.5 18.6 63 -13.4 7.8
05:30 1016 30 846 24.98 -7.5 18.4 63 -13.4 7.9
05:35 1017 30.03 846 24.98 -7.5 18.4 63 -13.4 7.9
05:40 1017 30.03 846 24.98 -7.6 18.4 63 -13.4 7.9
05:45 1017 30.03 846 24.98 -7.4 18.6 62 -13.5 7.8
05:50 1017 30.03 846 24.98 -7.2 19.1 61 -13.4 7.8
05:55 1017 30.03 846 24.98 -7.1 19.2 62 -13.2 8.3
06:00 1017 30.03 846 24.98 -7.2 19.1 63 -13.1 8.5
06:05 1017 30.03 846 24.98 -7.1 19.1 61 -13.5 7.7
06:10 1017 30.03 846 24.98 -7 19.4 60 -13.4 7.9
06:15 1017 30.03 846 24.98 -6.9 19.5 63 -12.9 8.8
06:20 1017 30.03 846 24.98 -7 19.4 62 -13.1 8.4
06:25 1017 30.03 846 24.98 -7 19.4 61 -13.3 8
06:30 1017 30.03 846 24.98 -7 19.5 60 -13.4 7.9
06:35 1017 30.03 846 24.98 -6.9 19.5 60 -13.5 7.6
06:40 1017 30.03 846 24.98 -7 19.4 60 -13.4 7.9
06:45 1017 30.03 846 24.98 -7 19.4 60 -13.4 7.8
06:50 1017 30.03 846 24.98 -6.9 19.6 60 -13.4 7.9
06:55 1017 30.03 846 24.98 -6.7 19.9 60 -13.2 8.2
07:00 1017 30.03 846 24.98 -6.6 20.2 60 -13.2 8.3
07:05 1017 30.03 847 25.01 -6.3 20.7 58 -13.2 8.2
07:10 1017 30.03 847 25.01 -6 21.2 60 -12.5 9.4
07:15 1017 30.03 847 25.01 -6 21.1 63 -12 10.4
07:20 1017 30.03 847 25.01 -6.1 21.1 63 -12.1 10.2
07:25 1017 30.03 847 25.01 -6 21.2 61 -12.3 9.9
07:30 1017 30.03 847 25.01 -5.8 21.6 61 -12.1 10.2
07:35 1017 30.03 847 25.01 -5.7 21.8 61 -12.1 10.3
07:40 1017 30.03 847 25.01 -5.7 21.8 61 -12.1 10.2
07:45 1018 30.06 847 25.01 -5.8 21.6 60 -12.4 9.7
07:50 1017 30.03 847 25.01 -5.7 21.7 61 -12.2 10.1
07:55 1017 30.03 847 25.01 -5.6 22 62 -11.8 10.7
08:00 1017 30.03 847 25.01 -5.5 22.2 65 -11 12.2
08:05 1017 30.03 847 25.01 -5.3 22.4 67 -10.5 13.1
08:10 1018 30.06 847 25.01 -5.4 22.3 68 -10.4 13.2
08:15 1018 30.06 847 25.01 -5.4 22.2 70 -10.1 13.9
08:20 1018 30.06 847 25.01 -5.3 22.4 68 -10.3 13.5
08:25 1018 30.06 847 25.01 -5.2 22.6 68 -10.3 13.5
08:30 1018 30.06 847 25.01 -5.2 22.6 69 -10.1 13.7
08:35 1018 30.06 847 25.01 -5.2 22.7 67 -10.3 13.4
08:40 1018 30.06 847 25.01 -5.3 22.4 68 -10.3 13.4
08:45 1018 30.06 847 25.01 -5.2 22.7 67 -10.3 13.4
08:50 1018 30.06 847 25.01 -4.9 23.2 66 -10.3 13.5
08:55 1018 30.06 847 25.01 -5.1 22.8 67 -10.4 13.3
09:00 1018 30.06 847 25.01 -5.2 22.6 67 -10.5 13.1
09:05 1018 30.06 847 25.01 -5.4 22.3 67 -10.7 12.8
09:10 1018 30.06 847 25.01 -5.4 22.3 67 -10.6 12.9
09:15 1018 30.06 848 25.04 -5.4 22.2 67 -10.5 13
09:20 1018 30.06 848 25.04 -5.7 21.7 67 -11 12.3
09:25 1019 30.09 848 25.04 -6 21.3 67 -11.2 11.9
09:30 1019 30.09 848 25.04 -5.9 21.4 66 -11.2 11.8
09:35 1019 30.09 848 25.04 -5.8 21.5 66 -11.2 11.9
09:40 1019 30.09 848 25.04 -5.7 21.8 64 -11.4 11.5
09:45 1019 30.09 848 25.04 -5.6 21.9 64 -11.5 11.4
09:50 1019 30.09 848 25.04 -5.5 22 64 -11.4 11.5
09:55 1019 30.09 848 25.04 -5.3 22.4 63 -11.4 11.5
10:00 1019 30.09 848 25.04 -5.2 22.6 62 -11.4 11.6
10:05 1019 30.09 848 25.04 -5.2 22.6 62 -11.4 11.4
10:10 1019 30.09 848 25.04 -5.4 22.3 64 -11.1 12.1
10:15 1019 30.09 848 25.04 -5 23.1 62 -11.1 12.1
10:20 1019 30.09 848 25.04 -4.6 23.8 62 -10.8 12.5
10:25 1019 30.09 848 25.04 -4.4 24.1 61 -10.9 12.3
10:30 1019 30.09 848 25.04 -4.8 23.4 62 -10.9 12.4
10:35 1019 30.09 849 25.07 -4.6 23.7 61 -11 12.2
10:40 1019 30.09 849 25.07 -4.4 24.1 58 -11.4 11.5
10:45 1019 30.09 849 25.07 -4.2 24.5 57 -11.4 11.5
10:50 1019 30.09 849 25.07 -4 24.9 59 -10.9 12.4
10:55 1019 30.09 849 25.07 -4.2 24.4 60 -11 12.2
11:00 1019 30.09 848 25.04 -4.5 23.8 59 -11.3 11.7
11:05 1019 30.09 848 25.04 -4.4 24.1 58 -11.6 11.2
11:10 1019 30.09 848 25.04 -4.2 24.5 56 -11.6 11
11:15 1019 30.09 848 25.04 -3.9 25 54 -11.8 10.7
11:20 1019 30.09 848 25.04 -3.5 25.8 53 -11.8 10.8
11:25 1019 30.09 848 25.04 -4 24.8 57 -11.4 11.5
11:30 1019 30.09 848 25.04 -4 24.9 56 -11.5 11.3
11:35 1019 30.09 848 25.04 -3.9 25 56 -11.5 11.3
11:40 1019 30.09 848 25.04 -4.2 24.4 58 -11.4 11.5
11:45 1019 30.09 848 25.04 -4.3 24.2 58 -11.4 11.5
11:50 1019 30.09 848 25.04 -4.8 23.4 60 -11.4 11.5
11:55 1019 30.09 848 25.04 -4.9 23.2 60 -11.5 11.3
12:00 1019 30.09 848 25.04 -4.7 23.6 59 -11.4 11.4
12:05 1019 30.09 848 25.04 -4.3 24.2 58 -11.4 11.5
12:10 1019 30.09 848 25.04 -4.3 24.2 58 -11.4 11.5
12:15 1019 30.09 848 25.04 -4 24.8 57 -11.4 11.5
12:20 1019 30.09 848 25.04 -3.8 25.1 57 -11.2 11.9
12:25 1019 30.09 848 25.04 -3.6 25.5 54 -11.6 11.2
12:30 1019 30.09 848 25.04 -3.8 25.1 55 -11.5 11.3
12:35 1019 30.09 848 25.04 -4.3 24.2 59 -11.2 11.8
12:40 1019 30.09 848 25.04 -4.1 24.7 57 -11.3 11.7
12:45 1019 30.09 848 25.04 -4.1 24.7 57 -11.3 11.6
12:50 1019 30.09 848 25.04 -3.4 25.9 53 -11.7 11
12:55 1019 30.09 848 25.04 -3.3 26 54 -11.4 11.6
13:00 1019 30.09 848 25.04 -3 26.6 52 -11.5 11.3
13:05 1019 30.09 848 25.04 -2.7 27.1 51 -11.5 11.3
13:10 1019 30.09 848 25.04 -2.5 27.5 52 -11 12.3
13:15 1019 30.09 848 25.04 -2 28.4 48 -11.5 11.2
13:20 1019 30.09 848 25.04 -1.9 28.6 50 -10.9 12.5
13:25 1019 30.09 848 25.04 -1.8 28.8 47 -11.5 11.2
13:30 1019 30.09 848 25.04 -1.2 29.8 49 -10.7 12.8
13:35 1019 30.09 848 25.04 -1.2 29.9 48 -10.7 12.7
13:40 1019 30.09 848 25.04 -1.2 29.9 47 -11.1 12
13:45 1019 30.09 848 25.04 -1.1 30 47 -11.1 12
13:50 1019 30.09 848 25.04 -1.2 29.8 48 -10.9 12.3
13:55 1019 30.09 848 25.04 -1.1 30 47 -11.1 12
14:00 1019 30.09 848 25.04 -0.8 30.5 45 -11.3 11.7
14:05 1019 30.09 848 25.04 -0.7 30.8 44 -11.3 11.6
14:10 1019 30.09 848 25.04 -0.9 30.3 44 -11.7 10.9
14:15 1019 30.09 848 25.04 -0.9 30.4 44 -11.6 11.1
14:20 1019 30.09 848 25.04 -1.6 29.1 48 -11.2 11.8
14:25 1019 30.09 848 25.04 -1.5 29.2 45 -12 10.5
14:30 1019 30.09 848 25.04 -2 28.3 48 -11.7 11
14:35 1019 30.09 848 25.04 -1.8 28.7 45 -12.2 10.1
14:40 1019 30.09 848 25.04 -2.3 27.9 49 -11.5 11.3
14:45 1019 30.09 848 25.04 -1.7 29 45 -12.1 10.3
14:50 1019 30.09 848 25.04 -1.1 29.9 46 -11.5 11.3
14:55 1019 30.09 848 25.04 -1.3 29.7 46 -11.4 11.5
15:00 1019 30.09 848 25.04 -1.3 29.7 45 -11.7 11
15:05 1019 30.09 848 25.04 -0.9 30.3 44 -11.7 10.9
15:10 1019 30.09 848 25.04 -0.8 30.6 45 -11.2 11.8
15:15 1019 30.09 848 25.04 -1.3 29.6 47 -11.3 11.6
15:20 1019 30.09 848 25.04 -1.7 28.9 49 -11.2 11.9
15:25 1019 30.09 848 25.04 -2.1 28.2 49 -11.5 11.3
15:30 1019 30.09 848 25.04 -2.1 28.3 49 -11.5 11.4
15:35 1019 30.09 848 25.04 -2 28.4 47 -11.9 10.6
15:40 1019 30.09 848 25.04 -2.4 27.7 49 -11.7 11
15:45 1019 30.09 848 25.04 -2.4 27.7 49 -11.7 10.9
15:50 1019 30.09 848 25.04 -2.4 27.6 50 -11.4 11.5
15:55 1019 30.09 848 25.04 -3.4 25.9 53 -11.8 10.8
16:00 1019 30.09 849 25.07 -3.9 25 53 -12.2 10
16:05 1019 30.09 849 25.07 -4.1 24.7 54 -12 10.5
16:10 1019 30.09 849 25.07 -4 24.8 53 -12.1 10.2
16:15 1019 30.09 848 25.04 -3.9 24.9 54 -12 10.4
16:20 1019 30.09 848 25.04 -3.9 25 54 -11.8 10.7
16:25 1019 30.09 848 25.04 -4.2 24.4 55 -11.9 10.5
16:30 1019 30.09 848 25.04 -4.5 24 56 -11.9 10.6
16:35 1019 30.09 848 25.04 -4.9 23.2 56 -12.4 9.8
16:40 1019 30.09 848 25.04 -5.2 22.6 57 -12.5 9.5
16:45 1019 30.09 848 25.04 -5.1 22.9 57 -12.3 9.8
16:50 1019 30.09 848 25.04 -5 23 57 -12.3 9.9
16:55 1019 30.09 848 25.04 -5.3 22.5 58 -12.3 9.9
17:00 1019 30.09 848 25.04 -5.9 21.4 60 -12.5 9.5
17:05 1019 30.09 848 25.04 -6.3 20.6 62 -12.4 9.6
17:10 1019 30.09 848 25.04 -6.3 20.6 60 -12.8 8.9
17:15 1019 30.09 848 25.04 -6.6 20.1 62 -12.7 9.1
17:20 1019 30.09 848 25.04 -6.8 19.8 62 -12.8 8.9
17:25 1019 30.09 848 25.04 -6.9 19.6 63 -12.8 9
17:30 1019 30.09 848 25.04 -7.1 19.3 64 -12.7 9.1
17:35 1019 30.09 848 25.04 -7.1 19.3 64 -12.8 8.9
17:40 1019 30.09 848 25.04 -7.2 19.1 64 -13 8.7
17:45 1019 30.09 848 25.04 -7.1 19.2 63 -13 8.5
17:50 1019 30.09 848 25.04 -7.2 19.1 63 -13.1 8.4
17:55 1019 30.09 848 25.04 -7.2 19.1 64 -13 8.6
18:00 1019 30.09 848 25.04 -7.6 18.4 65 -13.1 8.4
18:05 1019 30.09 848 25.04 -7.8 18.1 65 -13.3 8.1
18:10 1019 30.09 848 25.04 -7.9 17.8 65 -13.3 8.1
18:15 1019 30.09 848 25.04 -8 17.5 66 -13.4 7.9
18:20 1019 30.09 848 25.04 -8.1 17.5 65 -13.6 7.5
18:25 1019 30.09 848 25.04 -7.8 18 63 -13.7 7.3
18:30 1019 30.09 848 25.04 -8.2 17.3 65 -13.7 7.4
18:35 1019 30.09 848 25.04 -8.4 16.9 66 -13.7 7.4
18:40 1019 30.09 848 25.04 -8.4 17 66 -13.7 7.4
18:45 1019 30.09 848 25.04 -8.1 17.4 65 -13.5 7.6
18:50 1019 30.09 848 25.04 -8.2 17.3 66 -13.5 7.6
18:55 1019 30.09 848 25.04 -8.3 17.1 65 -13.7 7.3
19:00 1019 30.09 848 25.04 -8.3 17 65 -13.8 7.2
19:05 1019 30.09 848 25.04 -8.5 16.8 65 -13.9 7.1
19:10 1019 30.09 848 25.04 -8.5 16.7 66 -13.8 7.2
19:15 1019 30.09 848 25.04 -8.6 16.5 67 -13.8 7.2
19:20 1019 30.09 848 25.04 -8.7 16.3 67 -13.8 7.1
19:25 1019 30.09 848 25.04 -9 15.8 68 -13.8 7.1
19:30 1019 30.09 848 25.04 -8.9 16 68 -13.8 7.1
19:35 1019 30.09 848 25.04 -8.9 16 68 -13.8 7.2
19:40 1019 30.09 848 25.04 -9.1 15.7 68 -13.8 7.1
19:45 1019 30.09 848 25.04 -9.2 15.5 68 -14 6.7
19:50 1019 30.09 848 25.04 -9.3 15.3 68 -14.1 6.5
19:55 1019 30.09 848 25.04 -9.2 15.5 67 -14.1 6.6
20:00 1019 30.09 848 25.04 -9.2 15.5 68 -14.1 6.7
20:05 1019 30.09 848 25.04 -9.1 15.7 67 -14.1 6.6
20:10 1019 30.09 848 25.04 -9.1 15.6 67 -14.2 6.5
20:15 1019 30.09 848 25.04 -9.3 15.3 68 -14.2 6.5
20:20 1019 30.09 848 25.04 -9.4 15 68 -14.2 6.4
20:25 1019 30.09 848 25.04 -9.4 15.1 68 -14.2 6.4
20:30 1019 30.09 848 25.04 -9.4 15.1 68 -14.2 6.4
20:35 1019 30.09 848 25.04 -9.4 15.2 68 -14.3 6.3
20:40 1019 30.09 848 25.04 -9.2 15.5 67 -14.2 6.5
20:45 1019 30.09 848 25.04 -9.1 15.6 67 -14.1 6.6
20:50 1019 30.09 848 25.04 -9.3 15.2 68 -14.3 6.3
20:55 1019 30.09 848 25.04 -9.4 15.1 68 -14.3 6.3
21:00 1019 30.09 848 25.04 -9.3 15.2 67 -14.3 6.2
21:05 1019 30.09 848 25.04 -9.3 15.2 67 -14.3 6.2
21:10 1019 30.09 848 25.04 -9.3 15.3 67 -14.4 6.2
21:15 1019 30.09 848 25.04 -9.1 15.7 66 -14.4 6.2
21:20 1019 30.09 848 25.04 -9.1 15.7 65 -14.4 6
21:25 1019 30.09 848 25.04 -9 15.8 65 -14.4 6
21:30 1019 30.09 848 25.04 -9.1 15.7 65 -14.5 5.9
21:35 1019 30.09 848 25.04 -9.1 15.7 66 -14.4 6.1
21:40 1019 30.09 848 25.04 -9.1 15.6 65 -14.6 5.7
21:45 1019 30.09 848 25.04 -9.2 15.5 65 -14.5 5.9
21:50 1019 30.09 848 25.04 -9.3 15.3 65 -14.6 5.7
21:55 1019 30.09 848 25.04 -9.2 15.4 65 -14.6 5.7
22:00 1019 30.09 848 25.04 -9.4 15 67 -14.5 5.8
22:05 1019 30.09 848 25.04 -9.6 14.7 67 -14.6 5.7
22:10 1019 30.09 848 25.04 -9.7 14.5 67 -14.8 5.4
22:15 1019 30.09 848 25.04 -9.8 14.4 67 -14.7 5.5
22:20 1019 30.09 848 25.04 -9.7 14.6 67 -14.7 5.6
22:25 1019 30.09 848 25.04 -9.9 14.2 68 -14.7 5.5
22:30 1019 30.09 848 25.04 -10.1 13.9 68 -14.8 5.3
22:35 1019 30.09 848 25.04 -10.1 13.9 68 -14.9 5.2
22:40 1019 30.09 848 25.04 -10 14 69 -14.8 5.4
22:45 1019 30.09 848 25.04 -9.8 14.4 68 -14.6 5.6
22:50 1019 30.09 848 25.04 -9.7 14.6 68 -14.6 5.7
22:55 1019 30.09 848 25.04 -9.8 14.4 68 -14.7 5.6
23:00 1019 30.09 848 25.04 -9.6 14.6 67 -14.7 5.6
23:05 1019 30.09 848 25.04 -9.5 14.9 67 -14.6 5.7
23:10 1019 30.09 848 25.04 -9.4 15.1 66 -14.6 5.8
23:15 1019 30.09 848 25.04 -9.5 14.9 66 -14.7 5.6
23:20 1019 30.09 848 25.04 -9.7 14.5 68 -14.6 5.6
23:25 1019 30.09 848 25.04 -9.7 14.5 68 -14.6 5.7
23:30 1019 30.09 848 25.04 -9.8 14.4 68 -14.7 5.6
23:35 1019 30.09 848 25.04 -9.9 14.2 68 -14.8 5.4
23:40 1019 30.09 848 25.04 -9.9 14.2 68 -14.8 5.4
23:45 1019 30.09 848 25.04 -10.1 13.9 68 -14.8 5.3
23:50 1019 30.09 848 25.04 -10 14 68 -14.8 5.3
23:55 1019 30.09 848 25.04 -10.1 13.9 69 -14.8 5.4
24:00 1019 30.09 848 25.04 -10.3 13.5 70 -14.8 5.3